createdAt,value
2018-02-12T00:02:23.763Z,3.00
2018-02-12T00:04:52.478Z,3.70
2018-02-12T00:07:21.217Z,2.80
2018-02-12T00:09:49.561Z,3.20
2018-02-12T00:12:17.945Z,2.77
2018-02-12T00:14:46.334Z,2.30
2018-02-12T00:17:14.676Z,3.87
2018-02-12T00:19:43.423Z,4.03
2018-02-12T00:22:14.095Z,2.40
2018-02-12T00:24:42.851Z,2.97
2018-02-12T00:27:11.197Z,2.53
2018-02-12T00:29:39.543Z,2.87
2018-02-12T00:32:08.341Z,6.77
2018-02-12T00:34:37.010Z,2.93
2018-02-12T00:37:05.349Z,2.40
2018-02-12T00:39:33.722Z,2.30
2018-02-12T00:42:02.058Z,5.40
2018-02-12T00:44:30.770Z,3.07
2018-02-12T00:46:59.249Z,2.20
2018-02-12T00:49:27.604Z,2.37
2018-02-12T00:51:56.349Z,2.30
2018-02-12T00:54:24.731Z,2.23
2018-02-12T00:56:53.347Z,2.33
2018-02-12T00:59:22.089Z,2.50
2018-02-12T01:01:50.446Z,2.20
2018-02-12T01:04:18.767Z,2.67
2018-02-12T01:06:47.109Z,2.20
2018-02-12T01:09:15.471Z,2.00
2018-02-12T01:11:43.819Z,2.43
2018-02-12T01:14:12.531Z,2.40
2018-02-12T01:16:40.913Z,2.27
2018-02-12T01:19:09.263Z,2.17
2018-02-12T01:21:38.012Z,2.30
2018-02-12T01:24:06.504Z,2.40
2018-02-12T01:26:34.830Z,2.27
2018-02-12T01:29:03.182Z,2.47
2018-02-12T01:31:32.018Z,2.10
2018-02-12T01:34:00.653Z,2.53
2018-02-12T01:36:28.970Z,2.57
2018-02-12T01:38:57.331Z,2.67
2018-02-12T01:41:26.373Z,2.83
2018-02-12T01:43:54.723Z,2.50
2018-02-12T01:46:23.124Z,3.53
2018-02-12T01:48:51.447Z,3.37
2018-02-12T01:51:20.185Z,2.80
2018-02-12T01:53:49.021Z,2.87
2018-02-12T01:56:17.405Z,2.03
2018-02-12T01:58:46.117Z,2.50
2018-02-12T02:01:14.509Z,2.50
2018-02-12T02:03:42.838Z,2.47
2018-02-12T02:06:11.564Z,2.53
2018-02-12T02:08:40.203Z,2.57
2018-02-12T02:11:08.555Z,2.53
2018-02-12T02:13:36.875Z,2.50
2018-02-12T02:16:05.265Z,2.10
2018-02-12T02:18:33.917Z,2.27
2018-02-12T02:21:02.645Z,2.03
2018-02-12T02:23:31.393Z,2.50
2018-02-12T02:25:59.974Z,2.23
2018-02-12T02:28:28.665Z,2.20
2018-02-12T02:30:57.046Z,3.20
2018-02-12T02:33:25.793Z,2.53
2018-02-12T02:35:54.123Z,2.60
2018-02-12T02:38:22.882Z,2.30
2018-02-12T02:40:51.237Z,2.67
2018-02-12T02:43:19.563Z,1.97
2018-02-12T02:45:48.337Z,2.40
2018-02-12T02:48:16.914Z,1.90
2018-02-12T02:50:45.606Z,2.63
2018-02-12T02:53:13.994Z,2.40
2018-02-12T02:55:42.744Z,2.40
2018-02-12T02:58:11.166Z,2.40
2018-02-12T03:00:39.925Z,2.33
2018-02-12T03:03:08.242Z,2.33
2018-02-12T03:05:36.677Z,2.57
2018-02-12T03:08:05.029Z,2.93
2018-02-12T03:10:33.652Z,2.50
2018-02-12T03:13:02.022Z,3.10
2018-02-12T03:15:30.381Z,2.13
2018-02-12T03:17:58.772Z,3.00
2018-02-12T03:20:27.154Z,2.50
2018-02-12T03:22:55.503Z,2.43
2018-02-12T03:25:23.911Z,2.70
2018-02-12T03:27:52.266Z,2.10
2018-02-12T03:30:20.890Z,2.23
2018-02-12T03:32:49.234Z,2.37
2018-02-12T03:35:17.623Z,3.10
2018-02-12T03:37:46.043Z,2.70
2018-02-12T03:40:14.801Z,2.20
2018-02-12T03:42:43.606Z,2.60
2018-02-12T03:45:12.350Z,2.40
2018-02-12T03:47:40.666Z,2.43
2018-02-12T03:50:09.019Z,2.50
2018-02-12T03:52:37.339Z,2.00
2018-02-12T03:55:06.079Z,2.70
2018-02-12T03:57:34.417Z,2.33
2018-02-12T04:00:02.773Z,2.33
2018-02-12T04:02:31.566Z,2.50
2018-02-12T04:05:00.317Z,2.57
2018-02-12T04:07:28.790Z,2.90
2018-02-12T04:09:58.029Z,2.60
2018-02-12T04:12:26.953Z,2.40
2018-02-12T04:14:55.274Z,2.20
2018-02-12T04:17:23.639Z,3.47
2018-02-12T04:19:51.961Z,2.30
2018-02-12T04:22:20.705Z,2.10
2018-02-12T04:24:49.121Z,2.23
2018-02-12T04:27:17.846Z,2.30
2018-02-12T04:29:46.655Z,3.07
2018-02-12T04:32:15.026Z,2.30
2018-02-12T04:34:43.642Z,2.33
2018-02-12T04:37:12.002Z,2.40
2018-02-12T04:39:40.333Z,3.13
2018-02-12T04:42:08.657Z,2.60
2018-02-12T04:44:37.039Z,2.80
2018-02-12T04:47:05.421Z,2.43
2018-02-12T04:49:34.014Z,2.50
2018-02-12T04:52:02.342Z,2.83
2018-02-12T04:54:30.981Z,2.60
2018-02-12T04:56:59.711Z,2.60
2018-02-12T04:59:28.040Z,1.97
2018-02-12T05:01:56.363Z,2.80
2018-02-12T05:04:24.694Z,2.50
2018-02-12T05:06:53.167Z,2.50
2018-02-12T05:09:21.535Z,2.50
2018-02-12T05:11:49.862Z,3.20
2018-02-12T05:14:18.233Z,3.20
2018-02-12T05:16:46.664Z,2.73
2018-02-12T05:19:15.021Z,3.23
2018-02-12T05:21:43.387Z,2.70
2018-02-12T05:24:11.710Z,2.60
2018-02-12T05:26:40.053Z,3.13
2018-02-12T05:29:08.689Z,3.20
2018-02-12T05:31:37.412Z,3.20
2018-02-12T05:34:05.737Z,2.80
2018-02-12T05:36:34.533Z,3.07
2018-02-12T05:39:02.855Z,3.17
2018-02-12T05:41:31.215Z,3.00
2018-02-12T05:43:59.572Z,2.83
2018-02-12T05:46:28.368Z,2.80
2018-02-12T05:48:57.223Z,3.70
2018-02-12T05:51:25.598Z,2.73
2018-02-12T05:53:54.000Z,2.97
2018-02-12T05:56:22.345Z,2.83
2018-02-12T05:58:50.696Z,3.07
2018-02-12T06:01:19.081Z,3.30
2018-02-12T06:03:48.651Z,2.70
2018-02-12T06:06:17.407Z,2.93
2018-02-12T06:08:45.889Z,2.83
2018-02-12T06:11:14.214Z,3.17
2018-02-12T06:13:42.666Z,2.33
2018-02-12T06:16:11.129Z,3.43
2018-02-12T06:18:39.474Z,5.30
2018-02-12T06:21:07.884Z,2.60
2018-02-12T06:23:36.230Z,2.40
2018-02-12T06:26:04.587Z,2.97
2018-02-12T06:28:32.945Z,2.90
2018-02-12T06:31:01.400Z,2.60
2018-02-12T06:33:29.719Z,3.20
2018-02-12T06:35:58.086Z,2.83
2018-02-12T06:38:26.834Z,2.70
2018-02-12T06:40:55.208Z,5.70
2018-02-12T06:43:23.570Z,3.33
2018-02-12T06:45:51.921Z,2.83
2018-02-12T06:48:20.355Z,3.07
2018-02-12T06:50:48.697Z,2.40
2018-02-12T06:53:17.931Z,2.17
2018-02-12T06:55:46.310Z,2.63
2018-02-12T06:58:14.647Z,2.80
2018-02-12T07:00:42.999Z,2.87
2018-02-12T07:03:11.443Z,2.60
2018-02-12T07:05:39.781Z,2.30
2018-02-12T07:08:08.204Z,3.37
2018-02-12T07:10:36.567Z,3.17
2018-02-12T07:13:04.976Z,2.77
2018-02-12T07:15:34.457Z,3.33
2018-02-12T07:18:03.035Z,2.00
2018-02-12T07:20:31.643Z,2.33
2018-02-12T07:23:00.008Z,2.33
2018-02-12T07:25:28.342Z,2.93
2018-02-12T07:27:56.784Z,2.83
2018-02-12T07:30:25.118Z,2.50
2018-02-12T07:32:53.539Z,3.03
2018-02-12T07:35:21.901Z,2.40
2018-02-12T07:37:50.265Z,2.93
2018-02-12T07:40:18.847Z,3.50
2018-02-12T07:42:47.279Z,2.83
2018-02-12T07:45:15.644Z,2.37
2018-02-12T07:47:44.397Z,2.60
2018-02-12T07:50:14.420Z,2.40
2018-02-12T07:52:43.282Z,2.30
2018-02-12T07:55:11.680Z,3.23
2018-02-12T07:57:40.027Z,2.40
2018-02-12T08:00:08.374Z,2.40
2018-02-12T08:02:36.756Z,2.47
2018-02-12T08:05:05.634Z,2.30
2018-02-12T08:07:33.961Z,2.77
2018-02-12T08:10:02.332Z,2.40
2018-02-12T08:12:30.680Z,2.33
2018-02-12T08:14:59.430Z,3.00
2018-02-12T08:17:27.782Z,2.83
2018-02-12T08:19:56.831Z,2.30
2018-02-12T08:22:25.546Z,2.90
2018-02-12T08:24:53.940Z,2.20
2018-02-12T08:27:22.458Z,2.43
2018-02-12T08:29:50.838Z,2.50
2018-02-12T08:32:19.192Z,5.23
2018-02-12T08:34:47.557Z,3.80
2018-02-12T08:37:15.907Z,2.67
2018-02-12T08:39:44.728Z,2.67
2018-02-12T08:42:13.118Z,2.33
2018-02-12T08:44:41.513Z,2.90
2018-02-12T08:47:09.861Z,2.57
2018-02-12T08:49:38.210Z,2.70
2018-02-12T08:52:06.954Z,2.30
2018-02-12T08:54:35.376Z,2.37
2018-02-12T08:57:04.840Z,2.97
2018-02-12T08:59:34.088Z,2.33
2018-02-12T09:02:02.750Z,2.93
2018-02-12T09:04:31.331Z,2.83
2018-02-12T09:06:59.697Z,2.70
2018-02-12T09:09:28.045Z,3.33
2018-02-12T09:11:56.778Z,2.80
2018-02-12T09:14:25.120Z,2.33
2018-02-12T09:16:53.441Z,3.27
2018-02-12T09:19:22.174Z,2.70
2018-02-12T09:21:50.507Z,2.47
2018-02-12T09:24:19.265Z,2.47
2018-02-12T09:26:48.041Z,3.57
2018-02-12T09:29:16.423Z,2.97
2018-02-12T09:31:44.768Z,2.77
2018-02-12T09:34:13.406Z,2.23
2018-02-12T09:36:41.765Z,2.80
2018-02-12T09:39:10.366Z,2.60
2018-02-12T09:41:38.726Z,2.37
2018-02-12T09:44:07.433Z,2.70
2018-02-12T09:46:35.834Z,2.27
2018-02-12T09:49:04.374Z,2.40
2018-02-12T09:51:33.086Z,3.23
2018-02-12T09:54:01.982Z,2.30
2018-02-12T09:56:30.837Z,3.23
2018-02-12T09:58:59.154Z,2.67
2018-02-12T10:01:28.049Z,3.17
2018-02-12T10:03:56.822Z,6.03
2018-02-12T10:06:25.206Z,3.33
2018-02-12T10:08:54.061Z,2.30
2018-02-12T10:11:22.389Z,4.07
2018-02-12T10:13:50.746Z,2.53
2018-02-12T10:16:19.513Z,2.37
2018-02-12T10:18:48.110Z,3.07
2018-02-12T10:21:16.465Z,3.00
2018-02-12T10:23:44.822Z,2.80
2018-02-12T10:26:13.519Z,2.97
2018-02-12T10:28:41.861Z,2.50
2018-02-12T10:31:10.206Z,2.67
2018-02-12T10:33:38.575Z,2.57
2018-02-12T10:36:06.978Z,4.00
2018-02-12T10:38:35.703Z,3.10
2018-02-12T10:41:04.062Z,3.77
2018-02-12T10:43:32.458Z,2.80
2018-02-12T10:46:00.794Z,3.10
2018-02-12T10:48:29.539Z,3.03
2018-02-12T10:50:57.901Z,3.43
2018-02-12T10:53:26.282Z,2.50
2018-02-12T10:55:54.668Z,3.73
2018-02-12T10:58:23.017Z,2.53
2018-02-12T11:00:52.216Z,3.40
2018-02-12T11:03:20.558Z,2.50
2018-02-12T11:05:48.899Z,2.17
2018-02-12T11:08:17.584Z,2.30
2018-02-12T11:10:45.940Z,2.40
2018-02-12T11:13:14.298Z,2.40
2018-02-12T11:15:42.723Z,2.50
2018-02-12T11:18:11.098Z,2.13
2018-02-12T11:20:39.487Z,2.17
2018-02-12T11:23:08.081Z,1.90
2018-02-12T11:25:36.690Z,4.37
2018-02-12T11:28:05.142Z,4.70
2018-02-12T11:30:33.470Z,2.40
2018-02-12T11:33:01.829Z,2.80
2018-02-12T11:35:30.294Z,2.23
2018-02-12T11:37:59.092Z,3.20
2018-02-12T11:40:27.953Z,2.53
2018-02-12T11:42:56.327Z,7.47
2018-02-12T11:45:24.665Z,5.33
2018-02-12T11:47:53.010Z,3.80
2018-02-12T11:50:21.379Z,5.27
2018-02-12T11:52:49.858Z,3.67
2018-02-12T11:55:18.327Z,2.73
2018-02-12T11:57:46.711Z,3.20
2018-02-12T12:00:15.334Z,4.37
2018-02-12T12:02:44.692Z,3.30
2018-02-12T12:05:13.372Z,4.17
2018-02-12T12:07:41.733Z,7.50
2018-02-12T12:10:10.134Z,5.23
2018-02-12T12:12:38.461Z,11.60
2018-02-12T12:15:06.829Z,8.90
2018-02-12T12:17:35.365Z,3.93
2018-02-12T12:20:04.158Z,2.77
2018-02-12T12:22:32.870Z,4.10
2018-02-12T12:25:01.450Z,5.30
2018-02-12T12:27:29.806Z,2.60
2018-02-12T12:29:58.198Z,4.60
2018-02-12T12:32:26.789Z,4.97
2018-02-12T12:34:55.110Z,4.40
2018-02-12T12:37:23.477Z,4.80
2018-02-12T12:39:51.869Z,11.97
2018-02-12T12:42:20.233Z,5.93
2018-02-12T12:44:48.595Z,4.20
2018-02-12T12:47:17.392Z,5.40
2018-02-12T12:49:45.757Z,5.43
2018-02-12T12:52:14.524Z,3.77
2018-02-12T12:54:42.933Z,2.27
2018-02-12T12:57:11.671Z,4.10
2018-02-12T12:59:40.290Z,3.10
2018-02-12T13:02:09.387Z,3.20
2018-02-12T13:04:38.478Z,4.23
2018-02-12T13:07:07.344Z,3.47
2018-02-12T13:09:35.713Z,5.57
2018-02-12T13:12:04.205Z,5.23
2018-02-12T13:14:32.975Z,4.50
2018-02-12T13:17:01.346Z,3.33
2018-02-12T13:19:29.697Z,3.97
2018-02-12T13:21:58.538Z,5.10
2018-02-12T13:24:26.874Z,4.00
2018-02-12T13:26:55.221Z,3.60
2018-02-12T13:29:24.154Z,4.37
2018-02-12T13:31:52.495Z,4.67
2018-02-12T13:34:21.577Z,4.33
2018-02-12T13:36:50.427Z,2.33
2018-02-12T13:39:18.784Z,3.13
2018-02-12T13:41:47.121Z,6.00
2018-02-12T13:44:15.478Z,3.43
2018-02-12T13:46:43.839Z,4.40
2018-02-12T13:49:12.281Z,5.03
2018-02-12T13:51:40.645Z,4.67
2018-02-12T13:54:09.615Z,5.53
2018-02-12T13:56:37.958Z,4.10
2018-02-12T13:59:07.250Z,3.50
2018-02-12T14:01:35.646Z,5.13
2018-02-12T14:04:04.039Z,3.83
2018-02-12T14:06:32.755Z,5.57
2018-02-12T14:09:01.403Z,8.70
2018-02-12T14:11:30.197Z,8.63
2018-02-12T14:13:58.811Z,5.83
2018-02-12T14:16:27.265Z,5.00
2018-02-12T14:18:55.764Z,3.90
2018-02-12T14:21:24.124Z,3.77
2018-02-12T14:23:52.470Z,4.40
2018-02-12T14:26:20.983Z,8.27
2018-02-12T14:28:49.392Z,6.43
2018-02-12T14:31:17.736Z,5.93
2018-02-12T14:33:46.351Z,7.17
2018-02-12T14:36:14.702Z,4.70
2018-02-12T14:38:43.059Z,4.90
2018-02-12T14:41:11.452Z,3.43
2018-02-12T14:43:39.824Z,3.10
2018-02-12T14:46:08.187Z,5.67
2018-02-12T14:48:36.822Z,7.03
2018-02-12T14:51:05.217Z,6.80
2018-02-12T14:53:33.761Z,3.90
2018-02-12T14:56:02.125Z,5.27
2018-02-12T14:58:30.510Z,7.00
2018-02-12T15:00:58.846Z,7.87
2018-02-12T15:03:27.225Z,9.07
2018-02-12T15:05:55.621Z,6.63
2018-02-12T15:08:23.950Z,4.97
2018-02-12T15:10:52.333Z,6.73
2018-02-12T15:13:21.147Z,7.53
2018-02-12T15:15:49.580Z,3.77
2018-02-12T15:18:18.642Z,5.90
2018-02-12T15:20:47.058Z,4.70
2018-02-12T15:23:15.454Z,6.60
2018-02-12T15:25:43.805Z,4.50
2018-02-12T15:28:12.167Z,4.40
2018-02-12T15:30:40.647Z,4.63
2018-02-12T15:33:09.011Z,4.70
2018-02-12T15:35:37.391Z,4.80
2018-02-12T15:38:05.770Z,6.60
2018-02-12T15:40:34.411Z,5.47
2018-02-12T15:43:03.158Z,7.40
2018-02-12T15:45:31.506Z,5.40
2018-02-12T15:47:59.886Z,6.07
2018-02-12T15:50:28.227Z,5.77
2018-02-12T15:52:56.616Z,5.53
2018-02-12T15:55:25.295Z,4.67
2018-02-12T15:57:54.060Z,6.30
2018-02-12T16:00:22.406Z,3.50
2018-02-12T16:02:50.762Z,7.30
2018-02-12T16:05:19.125Z,4.80
2018-02-12T16:07:48.722Z,5.43
2018-02-12T16:10:17.085Z,4.13
2018-02-12T16:12:45.438Z,3.27
2018-02-12T16:15:14.163Z,6.20
2018-02-12T16:17:42.909Z,7.20
2018-02-12T16:20:11.298Z,5.00
2018-02-12T16:22:39.633Z,5.70
2018-02-12T16:25:08.031Z,5.33
2018-02-12T16:27:36.570Z,4.37
2018-02-12T16:30:05.325Z,3.43
2018-02-12T16:32:33.732Z,4.13
2018-02-12T16:35:02.094Z,5.03
2018-02-12T16:37:30.441Z,4.97
2018-02-12T16:39:58.821Z,4.80
2018-02-12T16:42:27.225Z,3.80
2018-02-12T16:44:55.586Z,4.93
2018-02-12T16:47:23.967Z,4.30
2018-02-12T16:49:52.326Z,5.30
2018-02-12T16:52:20.723Z,5.70
2018-02-12T16:54:49.082Z,4.30
2018-02-12T16:57:17.517Z,3.10
2018-02-12T16:59:45.903Z,5.77
2018-02-12T17:02:14.666Z,3.63
2018-02-12T17:04:43.690Z,5.93
2018-02-12T17:07:12.450Z,8.13
2018-02-12T17:09:41.057Z,7.63
2018-02-12T17:12:09.504Z,4.83
2018-02-12T17:14:37.836Z,4.37
2018-02-12T17:17:06.212Z,6.07
2018-02-12T17:19:34.613Z,4.63
2018-02-12T17:22:02.957Z,6.83
2018-02-12T17:24:31.364Z,5.40
2018-02-12T17:26:59.790Z,5.37
2018-02-12T17:29:29.841Z,5.57
2018-02-12T17:31:58.780Z,6.80
2018-02-12T17:34:28.148Z,4.93
2018-02-12T17:36:57.081Z,5.87
2018-02-12T17:39:26.000Z,7.17
2018-02-12T17:41:54.859Z,5.13
2018-02-12T17:44:23.627Z,4.60
2018-02-12T17:46:52.043Z,4.47
2018-02-12T17:49:20.810Z,5.30
2018-02-12T17:51:49.154Z,5.57
2018-02-12T17:54:17.578Z,4.60
2018-02-12T17:56:45.969Z,6.70
2018-02-12T17:59:15.112Z,6.60
2018-02-12T18:01:44.089Z,3.67
2018-02-12T18:04:13.277Z,4.93
2018-02-12T18:06:42.918Z,4.73
2018-02-12T18:09:12.000Z,5.17
2018-02-12T18:11:40.438Z,6.53
2018-02-12T18:14:08.911Z,6.23
2018-02-12T18:16:37.306Z,6.60
2018-02-12T18:19:06.965Z,4.70
2018-02-12T18:21:35.416Z,5.50
2018-02-12T18:24:04.058Z,6.50
2018-02-12T18:26:32.533Z,7.43
2018-02-12T18:29:01.325Z,5.57
2018-02-12T18:31:30.314Z,6.20
2018-02-12T18:33:59.478Z,6.10
2018-02-12T18:36:28.264Z,5.23
2018-02-12T18:38:56.752Z,5.10
2018-02-12T18:41:26.330Z,5.07
2018-02-12T18:43:55.391Z,6.00
2018-02-12T18:46:24.241Z,7.50
2018-02-12T18:48:52.640Z,3.83
2018-02-12T18:51:20.976Z,5.50
2018-02-12T18:53:49.466Z,6.90
2018-02-12T18:56:17.863Z,9.30
2018-02-12T18:58:46.894Z,8.30
2018-02-12T19:01:15.269Z,4.93
2018-02-12T19:03:43.673Z,4.60
2018-02-12T19:06:12.185Z,6.33
2018-02-12T19:08:40.567Z,5.27
2018-02-12T19:11:08.949Z,5.93
2018-02-12T19:13:38.255Z,6.87
2018-02-12T19:16:06.631Z,24.53
2018-02-12T19:18:35.076Z,14.23
2018-02-12T19:21:03.658Z,21.97
2018-02-12T19:23:32.447Z,22.30
2018-02-12T19:26:00.865Z,20.17
2018-02-12T19:28:29.225Z,18.83
2018-02-12T19:30:57.656Z,18.10
2018-02-12T19:33:26.094Z,13.27
2018-02-12T19:35:54.506Z,16.63
2018-02-12T19:38:22.902Z,15.13
2018-02-12T19:40:52.024Z,12.00
2018-02-12T19:43:20.891Z,15.13
2018-02-12T19:45:49.715Z,15.63
2018-02-12T19:48:18.169Z,13.20
2018-02-12T19:50:46.924Z,11.90
2018-02-12T19:53:15.323Z,13.63
2018-02-12T19:55:44.122Z,13.07
2018-02-12T19:58:12.918Z,12.60
2018-02-12T20:00:41.694Z,11.87
2018-02-12T20:03:10.557Z,11.33
2018-02-12T20:05:38.930Z,13.07
2018-02-12T20:08:07.298Z,10.57
2018-02-12T20:10:35.869Z,10.37
2018-02-12T20:13:04.505Z,13.30
2018-02-12T20:15:33.742Z,10.97
2018-02-12T20:18:02.134Z,9.80
2018-02-12T20:20:30.476Z,11.10
2018-02-12T20:22:59.210Z,9.63
2018-02-12T20:25:27.603Z,12.60
2018-02-12T20:27:55.923Z,9.23
2018-02-12T20:30:25.199Z,7.67
2018-02-12T20:32:53.562Z,9.90
2018-02-12T20:35:21.898Z,13.30
2018-02-12T20:37:50.547Z,9.23
2018-02-12T20:40:19.301Z,8.20
2018-02-12T20:42:47.661Z,12.87
2018-02-12T20:45:16.045Z,10.67
2018-02-12T20:47:44.394Z,11.03
2018-02-12T20:50:12.755Z,10.10
2018-02-12T20:52:41.230Z,9.70
2018-02-12T20:55:09.718Z,11.67
2018-02-12T20:57:38.558Z,10.53
2018-02-12T21:00:07.048Z,9.83
2018-02-12T21:02:35.658Z,8.43
2018-02-12T21:05:04.416Z,9.23
2018-02-12T21:07:32.819Z,9.20
2018-02-12T21:10:01.166Z,7.00
2018-02-12T21:12:29.555Z,8.80
2018-02-12T21:14:57.908Z,6.60
2018-02-12T21:17:26.786Z,8.17
2018-02-12T21:19:55.157Z,9.93
2018-02-12T21:22:24.807Z,10.67
2018-02-12T21:24:53.231Z,6.73
2018-02-12T21:27:21.967Z,6.50
2018-02-12T21:29:50.432Z,7.73
2018-02-12T21:32:18.854Z,7.03
2018-02-12T21:34:47.251Z,9.50
2018-02-12T21:37:15.645Z,9.97
2018-02-12T21:39:44.482Z,6.53
2018-02-12T21:42:12.837Z,6.37
2018-02-12T21:44:41.204Z,8.07
2018-02-12T21:47:09.587Z,7.73
2018-02-12T21:49:37.966Z,6.73
2018-02-12T21:52:06.304Z,6.70
2018-02-12T21:54:35.091Z,7.73
2018-02-12T21:57:03.830Z,5.43
2018-02-12T21:59:32.169Z,6.10
2018-02-12T22:02:00.543Z,6.43
2018-02-12T22:04:29.910Z,6.33
2018-02-12T22:06:58.750Z,4.90
2018-02-12T22:09:27.121Z,8.53
2018-02-12T22:11:55.532Z,10.13
2018-02-12T22:14:23.955Z,7.63
2018-02-12T22:16:52.733Z,7.03
2018-02-12T22:19:21.159Z,6.03
2018-02-12T22:21:49.546Z,7.60
2018-02-12T22:24:17.990Z,6.97
2018-02-12T22:26:46.763Z,6.53
2018-02-12T22:29:15.138Z,7.50
2018-02-12T22:31:43.550Z,7.23
2018-02-12T22:34:11.942Z,8.57
2018-02-12T22:36:40.595Z,5.43
2018-02-12T22:39:09.574Z,6.70
2018-02-12T22:41:38.651Z,6.07
2018-02-12T22:44:07.166Z,6.43
2018-02-12T22:46:36.037Z,6.20
2018-02-12T22:49:04.621Z,5.13
2018-02-12T22:51:33.063Z,5.37
2018-02-12T22:54:01.445Z,6.10
2018-02-12T22:56:29.935Z,4.70
2018-02-12T22:58:58.343Z,4.30
2018-02-12T23:01:27.667Z,5.63
2018-02-12T23:03:56.242Z,4.43
2018-02-12T23:06:25.045Z,6.00
2018-02-12T23:08:53.806Z,4.93
2018-02-12T23:11:22.199Z,4.67
2018-02-12T23:13:51.002Z,4.07
2018-02-12T23:16:19.382Z,4.20
2018-02-12T23:18:47.760Z,4.23
2018-02-12T23:21:16.132Z,4.97
2018-02-12T23:23:44.930Z,4.07
2018-02-12T23:26:13.455Z,3.73
2018-02-12T23:28:41.822Z,4.53
2018-02-12T23:31:10.322Z,3.33
2018-02-12T23:33:39.034Z,4.37
2018-02-12T23:36:07.519Z,3.43
2018-02-12T23:38:36.606Z,3.60
2018-02-12T23:41:05.364Z,3.77
2018-02-12T23:43:33.993Z,4.70
2018-02-12T23:46:02.336Z,3.13
2018-02-12T23:48:30.724Z,4.30
2018-02-12T23:50:59.462Z,2.90
2018-02-12T23:53:27.876Z,5.17
2018-02-12T23:55:56.258Z,3.47
2018-02-12T23:58:24.603Z,3.43
